sensor_id;sensor_type;location;lat;lon;timestamp;temperature;humidity
9919;DHT22;4998;51.024;13.828;2023-03-08T00:00:22;5.50;82.50
9919;DHT22;4998;51.024;13.828;2023-03-08T00:02:49;5.50;83.00
9919;DHT22;4998;51.024;13.828;2023-03-08T00:05:19;5.40;82.80
9919;DHT22;4998;51.024;13.828;2023-03-08T00:07:46;5.50;83.10
9919;DHT22;4998;51.024;13.828;2023-03-08T00:10:13;5.40;82.90
9919;DHT22;4998;51.024;13.828;2023-03-08T00:12:40;5.40;83.00
9919;DHT22;4998;51.024;13.828;2023-03-08T00:15:07;5.40;83.30
9919;DHT22;4998;51.024;13.828;2023-03-08T00:17:35;5.30;83.70
9919;DHT22;4998;51.024;13.828;2023-03-08T00:20:02;5.30;83.80
9919;DHT22;4998;51.024;13.828;2023-03-08T00:22:35;5.30;83.70
9919;DHT22;4998;51.024;13.828;2023-03-08T00:25:03;5.30;84.20
9919;DHT22;4998;51.024;13.828;2023-03-08T00:27:31;5.30;84.10
9919;DHT22;4998;51.024;13.828;2023-03-08T00:29:58;5.30;84.40
9919;DHT22;4998;51.024;13.828;2023-03-08T00:32:25;5.30;84.20
9919;DHT22;4998;51.024;13.828;2023-03-08T00:34:53;5.20;84.40
9919;DHT22;4998;51.024;13.828;2023-03-08T00:37:20;5.30;84.90
9919;DHT22;4998;51.024;13.828;2023-03-08T00:39:51;5.20;85.20
9919;DHT22;4998;51.024;13.828;2023-03-08T00:42:18;5.30;86.00
9919;DHT22;4998;51.024;13.828;2023-03-08T00:44:45;5.30;85.90
9919;DHT22;4998;51.024;13.828;2023-03-08T00:47:12;5.40;86.00
9919;DHT22;4998;51.024;13.828;2023-03-08T00:49:39;5.40;86.20
9919;DHT22;4998;51.024;13.828;2023-03-08T00:52:07;5.40;86.00
9919;DHT22;4998;51.024;13.828;2023-03-08T00:54:34;5.40;85.80
9919;DHT22;4998;51.024;13.828;2023-03-08T00:57:03;5.50;85.80
9919;DHT22;4998;51.024;13.828;2023-03-08T00:59:30;5.50;85.70
9919;DHT22;4998;51.024;13.828;2023-03-08T01:01:57;5.50;85.10
9919;DHT22;4998;51.024;13.828;2023-03-08T01:04:24;5.40;84.80
9919;DHT22;4998;51.024;13.828;2023-03-08T01:06:51;5.40;84.80
9919;DHT22;4998;51.024;13.828;2023-03-08T01:09:18;5.40;85.10
9919;DHT22;4998;51.024;13.828;2023-03-08T01:11:45;5.30;85.30
9919;DHT22;4998;51.024;13.828;2023-03-08T01:14:13;5.30;85.60
9919;DHT22;4998;51.024;13.828;2023-03-08T01:16:40;5.40;86.00
9919;DHT22;4998;51.024;13.828;2023-03-08T01:19:08;5.40;86.00
9919;DHT22;4998;51.024;13.828;2023-03-08T01:21:35;5.40;86.00
9919;DHT22;4998;51.024;13.828;2023-03-08T01:24:03;5.40;85.90
9919;DHT22;4998;51.024;13.828;2023-03-08T01:26:30;5.40;85.70
9919;DHT22;4998;51.024;13.828;2023-03-08T01:28:57;5.40;85.90
9919;DHT22;4998;51.024;13.828;2023-03-08T01:31:27;5.40;86.00
9919;DHT22;4998;51.024;13.828;2023-03-08T01:33:55;5.40;86.10
9919;DHT22;4998;51.024;13.828;2023-03-08T01:36:23;5.40;86.10
9919;DHT22;4998;51.024;13.828;2023-03-08T01:38:51;5.40;86.30
9919;DHT22;4998;51.024;13.828;2023-03-08T01:41:21;5.40;86.10
9919;DHT22;4998;51.024;13.828;2023-03-08T01:43:49;5.30;86.50
9919;DHT22;4998;51.024;13.828;2023-03-08T01:46:28;5.30;87.10
9919;DHT22;4998;51.024;13.828;2023-03-08T01:48:59;5.30;86.50
9919;DHT22;4998;51.024;13.828;2023-03-08T01:51:35;5.30;86.40
9919;DHT22;4998;51.024;13.828;2023-03-08T01:54:06;5.30;86.30
9919;DHT22;4998;51.024;13.828;2023-03-08T01:56:34;5.30;86.20
9919;DHT22;4998;51.024;13.828;2023-03-08T01:59:01;5.30;87.20
9919;DHT22;4998;51.024;13.828;2023-03-08T02:01:31;5.30;86.60
9919;DHT22;4998;51.024;13.828;2023-03-08T02:03:59;5.30;86.70
9919;DHT22;4998;51.024;13.828;2023-03-08T02:06:27;5.30;86.30
9919;DHT22;4998;51.024;13.828;2023-03-08T02:08:54;5.30;86.40
9919;DHT22;4998;51.024;13.828;2023-03-08T02:11:22;5.30;86.50
9919;DHT22;4998;51.024;13.828;2023-03-08T02:13:50;5.30;86.60
9919;DHT22;4998;51.024;13.828;2023-03-08T02:16:19;5.40;86.80
9919;DHT22;4998;51.024;13.828;2023-03-08T02:18:53;5.40;86.80
9919;DHT22;4998;51.024;13.828;2023-03-08T02:21:21;5.40;87.20
9919;DHT22;4998;51.024;13.828;2023-03-08T02:23:49;5.40;87.00
9919;DHT22;4998;51.024;13.828;2023-03-08T02:26:17;5.50;87.20
9919;DHT22;4998;51.024;13.828;2023-03-08T02:28:44;5.50;87.20
9919;DHT22;4998;51.024;13.828;2023-03-08T02:31:11;5.50;87.20
9919;DHT22;4998;51.024;13.828;2023-03-08T02:33:39;5.50;87.20
9919;DHT22;4998;51.024;13.828;2023-03-08T02:36:07;5.50;87.10
9919;DHT22;4998;51.024;13.828;2023-03-08T02:38:35;5.60;87.40
9919;DHT22;4998;51.024;13.828;2023-03-08T02:41:03;5.60;87.40
9919;DHT22;4998;51.024;13.828;2023-03-08T02:43:30;5.70;87.50
9919;DHT22;4998;51.024;13.828;2023-03-08T02:45:57;5.70;87.30
9919;DHT22;4998;51.024;13.828;2023-03-08T02:48:24;5.70;87.30
9919;DHT22;4998;51.024;13.828;2023-03-08T02:50:51;5.70;87.20
9919;DHT22;4998;51.024;13.828;2023-03-08T02:53:18;5.70;87.10
9919;DHT22;4998;51.024;13.828;2023-03-08T02:55:45;5.70;87.20
9919;DHT22;4998;51.024;13.828;2023-03-08T02:58:14;5.70;87.20
9919;DHT22;4998;51.024;13.828;2023-03-08T03:00:41;5.80;87.40
9919;DHT22;4998;51.024;13.828;2023-03-08T03:03:08;5.80;87.20
9919;DHT22;4998;51.024;13.828;2023-03-08T03:05:40;5.80;87.10
9919;DHT22;4998;51.024;13.828;2023-03-08T03:08:08;5.80;87.10
9919;DHT22;4998;51.024;13.828;2023-03-08T03:10:35;5.80;86.80
9919;DHT22;4998;51.024;13.828;2023-03-08T03:13:02;5.80;86.80
9919;DHT22;4998;51.024;13.828;2023-03-08T03:15:31;5.80;87.20
9919;DHT22;4998;51.024;13.828;2023-03-08T03:17:58;5.80;87.20
9919;DHT22;4998;51.024;13.828;2023-03-08T03:20:25;5.80;87.10
9919;DHT22;4998;51.024;13.828;2023-03-08T03:22:52;5.80;87.10
9919;DHT22;4998;51.024;13.828;2023-03-08T03:25:19;5.80;87.10
9919;DHT22;4998;51.024;13.828;2023-03-08T03:27:46;5.80;87.20
9919;DHT22;4998;51.024;13.828;2023-03-08T03:30:13;5.90;87.30
9919;DHT22;4998;51.024;13.828;2023-03-08T03:32:42;5.90;87.40
9919;DHT22;4998;51.024;13.828;2023-03-08T03:35:09;5.90;87.50
9919;DHT22;4998;51.024;13.828;2023-03-08T03:37:36;6.00;87.60
9919;DHT22;4998;51.024;13.828;2023-03-08T03:40:04;5.90;87.40
9919;DHT22;4998;51.024;13.828;2023-03-08T03:42:31;5.90;87.40
9919;DHT22;4998;51.024;13.828;2023-03-08T03:44:58;5.90;87.20
9919;DHT22;4998;51.024;13.828;2023-03-08T03:47:25;5.90;87.30
9919;DHT22;4998;51.024;13.828;2023-03-08T03:49:53;5.90;87.30
9919;DHT22;4998;51.024;13.828;2023-03-08T03:52:20;5.90;87.40
9919;DHT22;4998;51.024;13.828;2023-03-08T03:54:47;5.90;87.30
9919;DHT22;4998;51.024;13.828;2023-03-08T03:57:14;5.90;87.30
9919;DHT22;4998;51.024;13.828;2023-03-08T03:59:41;5.90;87.30
9919;DHT22;4998;51.024;13.828;2023-03-08T04:02:08;5.90;87.10
9919;DHT22;4998;51.024;13.828;2023-03-08T04:04:35;5.90;87.20
9919;DHT22;4998;51.024;13.828;2023-03-08T04:07:04;5.90;87.30
9919;DHT22;4998;51.024;13.828;2023-03-08T04:09:31;5.90;87.40
9919;DHT22;4998;51.024;13.828;2023-03-08T04:11:58;6.00;87.50
9919;DHT22;4998;51.024;13.828;2023-03-08T04:14:30;5.90;87.40
9919;DHT22;4998;51.024;13.828;2023-03-08T04:16:57;5.90;87.40
9919;DHT22;4998;51.024;13.828;2023-03-08T04:19:24;5.90;87.30
9919;DHT22;4998;51.024;13.828;2023-03-08T04:21:51;5.90;87.30
9919;DHT22;4998;51.024;13.828;2023-03-08T04:24:19;5.90;87.40
9919;DHT22;4998;51.024;13.828;2023-03-08T04:26:46;5.90;87.40
9919;DHT22;4998;51.024;13.828;2023-03-08T04:29:13;5.90;87.40
9919;DHT22;4998;51.024;13.828;2023-03-08T04:31:40;5.90;87.50
9919;DHT22;4998;51.024;13.828;2023-03-08T04:34:07;5.90;87.50
9919;DHT22;4998;51.024;13.828;2023-03-08T04:36:35;5.80;87.60
9919;DHT22;4998;51.024;13.828;2023-03-08T04:39:03;5.90;87.80
9919;DHT22;4998;51.024;13.828;2023-03-08T04:41:31;5.90;88.00
9919;DHT22;4998;51.024;13.828;2023-03-08T04:43:58;5.90;88.10
9919;DHT22;4998;51.024;13.828;2023-03-08T04:46:27;5.90;87.90
9919;DHT22;4998;51.024;13.828;2023-03-08T04:48:54;5.90;87.90
9919;DHT22;4998;51.024;13.828;2023-03-08T04:51:23;5.90;87.90
9919;DHT22;4998;51.024;13.828;2023-03-08T04:53:50;5.90;88.00
9919;DHT22;4998;51.024;13.828;2023-03-08T04:56:17;5.90;88.00
9919;DHT22;4998;51.024;13.828;2023-03-08T04:58:46;5.90;88.10
9919;DHT22;4998;51.024;13.828;2023-03-08T05:01:14;5.90;88.20
9919;DHT22;4998;51.024;13.828;2023-03-08T05:03:42;5.90;88.20
9919;DHT22;4998;51.024;13.828;2023-03-08T05:06:10;5.80;88.80
9919;DHT22;4998;51.024;13.828;2023-03-08T05:08:38;5.80;88.10
9919;DHT22;4998;51.024;13.828;2023-03-08T05:11:05;5.80;88.20
9919;DHT22;4998;51.024;13.828;2023-03-08T05:13:34;5.80;88.20
9919;DHT22;4998;51.024;13.828;2023-03-08T05:16:04;5.80;88.50
9919;DHT22;4998;51.024;13.828;2023-03-08T05:18:31;5.90;88.60
9919;DHT22;4998;51.024;13.828;2023-03-08T05:21:00;5.90;88.60
9919;DHT22;4998;51.024;13.828;2023-03-08T05:23:28;5.90;88.80
9919;DHT22;4998;51.024;13.828;2023-03-08T05:25:56;5.90;88.80
9919;DHT22;4998;51.024;13.828;2023-03-08T05:28:25;5.90;88.90
9919;DHT22;4998;51.024;13.828;2023-03-08T05:30:59;5.90;89.00
9919;DHT22;4998;51.024;13.828;2023-03-08T05:33:28;5.90;89.20
9919;DHT22;4998;51.024;13.828;2023-03-08T05:35:55;6.00;89.20
9919;DHT22;4998;51.024;13.828;2023-03-08T05:38:22;6.00;89.00
9919;DHT22;4998;51.024;13.828;2023-03-08T05:40:49;6.00;88.90
9919;DHT22;4998;51.024;13.828;2023-03-08T05:43:17;6.00;88.80
9919;DHT22;4998;51.024;13.828;2023-03-08T05:45:53;6.00;88.90
9919;DHT22;4998;51.024;13.828;2023-03-08T05:48:20;6.00;89.20
9919;DHT22;4998;51.024;13.828;2023-03-08T05:50:49;6.10;89.00
9919;DHT22;4998;51.024;13.828;2023-03-08T05:53:16;6.10;89.10
9919;DHT22;4998;51.024;13.828;2023-03-08T05:55:43;6.10;89.00
9919;DHT22;4998;51.024;13.828;2023-03-08T05:58:10;6.10;89.10
9919;DHT22;4998;51.024;13.828;2023-03-08T06:00:37;6.10;89.10
9919;DHT22;4998;51.024;13.828;2023-03-08T06:03:04;6.10;89.10
9919;DHT22;4998;51.024;13.828;2023-03-08T06:05:32;6.10;89.10
9919;DHT22;4998;51.024;13.828;2023-03-08T06:08:00;6.10;89.10
9919;DHT22;4998;51.024;13.828;2023-03-08T06:10:27;6.10;89.30
9919;DHT22;4998;51.024;13.828;2023-03-08T06:12:54;6.20;89.30
9919;DHT22;4998;51.024;13.828;2023-03-08T06:15:22;6.20;89.30
9919;DHT22;4998;51.024;13.828;2023-03-08T06:17:51;6.20;89.30
9919;DHT22;4998;51.024;13.828;2023-03-08T06:20:18;6.20;89.30
9919;DHT22;4998;51.024;13.828;2023-03-08T06:22:45;6.30;89.30
9919;DHT22;4998;51.024;13.828;2023-03-08T06:25:14;6.30;89.30
9919;DHT22;4998;51.024;13.828;2023-03-08T06:27:41;6.30;89.50
9919;DHT22;4998;51.024;13.828;2023-03-08T06:30:09;6.30;89.30
9919;DHT22;4998;51.024;13.828;2023-03-08T06:32:36;6.30;89.50
9919;DHT22;4998;51.024;13.828;2023-03-08T06:35:03;6.40;89.60
9919;DHT22;4998;51.024;13.828;2023-03-08T06:37:32;6.40;89.70
9919;DHT22;4998;51.024;13.828;2023-03-08T06:39:59;6.40;89.70
9919;DHT22;4998;51.024;13.828;2023-03-08T06:42:28;6.40;89.60
9919;DHT22;4998;51.024;13.828;2023-03-08T06:44:55;6.40;89.60
9919;DHT22;4998;51.024;13.828;2023-03-08T06:47:22;6.50;89.70
9919;DHT22;4998;51.024;13.828;2023-03-08T06:49:49;6.50;89.80
9919;DHT22;4998;51.024;13.828;2023-03-08T06:52:18;6.50;89.70
9919;DHT22;4998;51.024;13.828;2023-03-08T06:54:45;6.50;89.80
9919;DHT22;4998;51.024;13.828;2023-03-08T06:57:11;6.60;89.90
9919;DHT22;4998;51.024;13.828;2023-03-08T06:59:40;6.60;89.90
9919;DHT22;4998;51.024;13.828;2023-03-08T07:02:08;6.60;90.00
9919;DHT22;4998;51.024;13.828;2023-03-08T07:04:35;6.60;90.00
9919;DHT22;4998;51.024;13.828;2023-03-08T07:07:03;6.70;90.00
9919;DHT22;4998;51.024;13.828;2023-03-08T07:09:32;6.70;90.00
9919;DHT22;4998;51.024;13.828;2023-03-08T07:11:59;6.70;90.00
9919;DHT22;4998;51.024;13.828;2023-03-08T07:14:26;6.70;90.00
9919;DHT22;4998;51.024;13.828;2023-03-08T07:16:54;6.70;90.00
9919;DHT22;4998;51.024;13.828;2023-03-08T07:19:21;6.80;90.10
9919;DHT22;4998;51.024;13.828;2023-03-08T07:21:48;6.80;90.00
9919;DHT22;4998;51.024;13.828;2023-03-08T07:24:15;6.90;90.00
9919;DHT22;4998;51.024;13.828;2023-03-08T07:26:42;6.90;90.00
9919;DHT22;4998;51.024;13.828;2023-03-08T07:29:09;6.90;90.00
9919;DHT22;4998;51.024;13.828;2023-03-08T07:31:36;7.00;90.00
9919;DHT22;4998;51.024;13.828;2023-03-08T07:34:04;7.00;89.70
9919;DHT22;4998;51.024;13.828;2023-03-08T07:36:32;7.10;89.90
9919;DHT22;4998;51.024;13.828;2023-03-08T07:38:59;7.10;89.70
9919;DHT22;4998;51.024;13.828;2023-03-08T07:41:26;7.10;89.60
9919;DHT22;4998;51.024;13.828;2023-03-08T07:43:56;7.20;89.70
9919;DHT22;4998;51.024;13.828;2023-03-08T07:46:24;7.20;89.80
9919;DHT22;4998;51.024;13.828;2023-03-08T07:48:52;7.20;89.80
9919;DHT22;4998;51.024;13.828;2023-03-08T07:51:21;7.30;89.80
9919;DHT22;4998;51.024;13.828;2023-03-08T07:53:48;7.30;89.70
9919;DHT22;4998;51.024;13.828;2023-03-08T07:56:16;7.40;89.70
9919;DHT22;4998;51.024;13.828;2023-03-08T07:58:43;7.40;89.20
9919;DHT22;4998;51.024;13.828;2023-03-08T08:01:11;7.40;89.10
9919;DHT22;4998;51.024;13.828;2023-03-08T08:03:39;7.40;89.10
9919;DHT22;4998;51.024;13.828;2023-03-08T08:06:06;7.40;89.10
9919;DHT22;4998;51.024;13.828;2023-03-08T08:08:35;7.50;89.10
9919;DHT22;4998;51.024;13.828;2023-03-08T08:11:08;7.50;89.30
9919;DHT22;4998;51.024;13.828;2023-03-08T08:13:35;7.50;89.30
9919;DHT22;4998;51.024;13.828;2023-03-08T08:16:02;7.50;89.30
9919;DHT22;4998;51.024;13.828;2023-03-08T08:18:31;7.60;89.10
9919;DHT22;4998;51.024;13.828;2023-03-08T08:21:00;7.60;88.90
9919;DHT22;4998;51.024;13.828;2023-03-08T08:23:27;7.60;88.80
9919;DHT22;4998;51.024;13.828;2023-03-08T08:25:55;7.70;88.90
9919;DHT22;4998;51.024;13.828;2023-03-08T08:28:23;7.60;88.90
9919;DHT22;4998;51.024;13.828;2023-03-08T08:30:58;7.70;89.30
9919;DHT22;4998;51.024;13.828;2023-03-08T08:33:26;7.70;89.50
9919;DHT22;4998;51.024;13.828;2023-03-08T08:35:53;7.80;89.30
9919;DHT22;4998;51.024;13.828;2023-03-08T08:38:20;7.80;89.00
9919;DHT22;4998;51.024;13.828;2023-03-08T08:40:48;7.80;88.60
9919;DHT22;4998;51.024;13.828;2023-03-08T08:43:17;7.80;88.30
9919;DHT22;4998;51.024;13.828;2023-03-08T08:45:44;7.90;88.40
9919;DHT22;4998;51.024;13.828;2023-03-08T08:48:11;7.90;88.60
9919;DHT22;4998;51.024;13.828;2023-03-08T08:50:39;7.90;88.90
9919;DHT22;4998;51.024;13.828;2023-03-08T08:53:06;7.90;89.00
9919;DHT22;4998;51.024;13.828;2023-03-08T08:55:33;8.00;89.00
9919;DHT22;4998;51.024;13.828;2023-03-08T08:58:01;8.00;89.00
9919;DHT22;4998;51.024;13.828;2023-03-08T09:00:31;8.10;89.00
9919;DHT22;4998;51.024;13.828;2023-03-08T09:02:58;8.10;88.80
9919;DHT22;4998;51.024;13.828;2023-03-08T09:05:25;8.10;88.70
9919;DHT22;4998;51.024;13.828;2023-03-08T09:07:53;8.20;88.70
9919;DHT22;4998;51.024;13.828;2023-03-08T09:10:20;8.20;88.60
9919;DHT22;4998;51.024;13.828;2023-03-08T09:12:47;8.20;88.10
9919;DHT22;4998;51.024;13.828;2023-03-08T09:15:14;8.30;88.00
9919;DHT22;4998;51.024;13.828;2023-03-08T09:17:42;8.30;87.80
9919;DHT22;4998;51.024;13.828;2023-03-08T09:20:10;8.20;87.70
9919;DHT22;4998;51.024;13.828;2023-03-08T09:22:37;8.20;87.80
9919;DHT22;4998;51.024;13.828;2023-03-08T09:25:07;8.20;88.70
9919;DHT22;4998;51.024;13.828;2023-03-08T09:27:36;8.30;87.90
9919;DHT22;4998;51.024;13.828;2023-03-08T09:30:04;8.30;88.00
9919;DHT22;4998;51.024;13.828;2023-03-08T09:32:32;8.30;88.10
9919;DHT22;4998;51.024;13.828;2023-03-08T09:35:01;8.30;87.80
9919;DHT22;4998;51.024;13.828;2023-03-08T09:37:29;8.30;87.80
9919;DHT22;4998;51.024;13.828;2023-03-08T09:39:56;8.30;87.70
9919;DHT22;4998;51.024;13.828;2023-03-08T09:42:25;8.30;87.50
9919;DHT22;4998;51.024;13.828;2023-03-08T09:45:11;8.30;87.40
9919;DHT22;4998;51.024;13.828;2023-03-08T09:47:43;8.30;87.60
9919;DHT22;4998;51.024;13.828;2023-03-08T09:50:30;8.30;88.40
9919;DHT22;4998;51.024;13.828;2023-03-08T09:53:02;8.30;87.50
9919;DHT22;4998;51.024;13.828;2023-03-08T09:55:32;8.30;87.70
9919;DHT22;4998;51.024;13.828;2023-03-08T09:58:02;8.30;87.40
9919;DHT22;4998;51.024;13.828;2023-03-08T10:00:32;8.30;87.40
9919;DHT22;4998;51.024;13.828;2023-03-08T10:03:15;8.30;87.20
9919;DHT22;4998;51.024;13.828;2023-03-08T10:05:52;8.30;87.40
9919;DHT22;4998;51.024;13.828;2023-03-08T10:08:24;8.40;87.50
9919;DHT22;4998;51.024;13.828;2023-03-08T10:10:56;8.40;87.60
9919;DHT22;4998;51.024;13.828;2023-03-08T10:13:35;8.40;87.60
9919;DHT22;4998;51.024;13.828;2023-03-08T10:16:10;8.50;87.90
9919;DHT22;4998;51.024;13.828;2023-03-08T10:18:43;8.50;87.80
9919;DHT22;4998;51.024;13.828;2023-03-08T10:21:15;8.50;87.30
9919;DHT22;4998;51.024;13.828;2023-03-08T10:23:45;8.50;87.50
9919;DHT22;4998;51.024;13.828;2023-03-08T10:26:14;8.60;87.70
9919;DHT22;4998;51.024;13.828;2023-03-08T10:28:42;8.60;87.90
9919;DHT22;4998;51.024;13.828;2023-03-08T10:31:19;8.60;87.90
9919;DHT22;4998;51.024;13.828;2023-03-08T10:33:48;8.60;87.60
9919;DHT22;4998;51.024;13.828;2023-03-08T10:36:19;8.70;87.80
9919;DHT22;4998;51.024;13.828;2023-03-08T10:39:00;8.70;87.80
9919;DHT22;4998;51.024;13.828;2023-03-08T10:41:28;8.70;87.70
9919;DHT22;4998;51.024;13.828;2023-03-08T10:43:57;8.70;87.70
9919;DHT22;4998;51.024;13.828;2023-03-08T10:46:27;8.70;87.80
9919;DHT22;4998;51.024;13.828;2023-03-08T10:49:06;8.70;87.80
9919;DHT22;4998;51.024;13.828;2023-03-08T10:51:34;8.80;88.10
9919;DHT22;4998;51.024;13.828;2023-03-08T10:54:03;8.80;88.00
9919;DHT22;4998;51.024;13.828;2023-03-08T10:56:35;8.80;88.20
9919;DHT22;4998;51.024;13.828;2023-03-08T10:59:04;8.80;88.40
9919;DHT22;4998;51.024;13.828;2023-03-08T11:01:33;8.90;88.60
9919;DHT22;4998;51.024;13.828;2023-03-08T11:04:02;8.90;88.60
9919;DHT22;4998;51.024;13.828;2023-03-08T11:06:30;8.90;88.80
9919;DHT22;4998;51.024;13.828;2023-03-08T11:09:03;8.90;88.70
9919;DHT22;4998;51.024;13.828;2023-03-08T11:11:39;9.00;89.10
9919;DHT22;4998;51.024;13.828;2023-03-08T11:14:08;9.00;89.20
9919;DHT22;4998;51.024;13.828;2023-03-08T11:16:56;9.00;89.40
9919;DHT22;4998;51.024;13.828;2023-03-08T11:19:34;9.10;89.70
9919;DHT22;4998;51.024;13.828;2023-03-08T11:22:10;9.10;89.70
9919;DHT22;4998;51.024;13.828;2023-03-08T11:24:51;9.10;89.60
9919;DHT22;4998;51.024;13.828;2023-03-08T11:27:33;9.20;89.80
9919;DHT22;4998;51.024;13.828;2023-03-08T11:30:13;9.20;89.70
9919;DHT22;4998;51.024;13.828;2023-03-08T11:32:51;9.30;89.60
9919;DHT22;4998;51.024;13.828;2023-03-08T11:35:25;9.30;89.70
9919;DHT22;4998;51.024;13.828;2023-03-08T11:38:01;9.30;89.90
9919;DHT22;4998;51.024;13.828;2023-03-08T11:40:41;9.40;90.10
9919;DHT22;4998;51.024;13.828;2023-03-08T11:43:24;9.40;90.20
9919;DHT22;4998;51.024;13.828;2023-03-08T11:46:00;9.50;90.30
9919;DHT22;4998;51.024;13.828;2023-03-08T11:48:52;9.50;90.40
9919;DHT22;4998;51.024;13.828;2023-03-08T11:51:28;9.60;90.40
9919;DHT22;4998;51.024;13.828;2023-03-08T11:54:07;9.70;90.50
9919;DHT22;4998;51.024;13.828;2023-03-08T11:56:49;9.70;90.50
9919;DHT22;4998;51.024;13.828;2023-03-08T11:59:22;9.80;90.30
9919;DHT22;4998;51.024;13.828;2023-03-08T12:01:54;9.90;90.20
9919;DHT22;4998;51.024;13.828;2023-03-08T12:04:26;9.90;90.10
9919;DHT22;4998;51.024;13.828;2023-03-08T12:06:57;10.00;88.90
9919;DHT22;4998;51.024;13.828;2023-03-08T12:09:28;10.00;88.70
9919;DHT22;4998;51.024;13.828;2023-03-08T12:12:02;10.00;88.60
9919;DHT22;4998;51.024;13.828;2023-03-08T12:14:34;10.00;88.40
9919;DHT22;4998;51.024;13.828;2023-03-08T12:17:06;10.00;88.40
9919;DHT22;4998;51.024;13.828;2023-03-08T12:19:44;10.00;88.10
9919;DHT22;4998;51.024;13.828;2023-03-08T12:22:21;10.00;87.60
9919;DHT22;4998;51.024;13.828;2023-03-08T12:24:53;10.00;87.50
9919;DHT22;4998;51.024;13.828;2023-03-08T12:27:27;10.00;87.50
9919;DHT22;4998;51.024;13.828;2023-03-08T12:29:58;9.90;88.70
9919;DHT22;4998;51.024;13.828;2023-03-08T12:32:28;9.90;88.90
9919;DHT22;4998;51.024;13.828;2023-03-08T12:35:03;9.90;89.00
9919;DHT22;4998;51.024;13.828;2023-03-08T12:37:32;9.80;89.10
9919;DHT22;4998;51.024;13.828;2023-03-08T12:40:02;9.80;89.20
9919;DHT22;4998;51.024;13.828;2023-03-08T12:42:35;9.90;89.60
9919;DHT22;4998;51.024;13.828;2023-03-08T12:45:25;9.70;89.60
9919;DHT22;4998;51.024;13.828;2023-03-08T12:48:15;9.80;90.00
9919;DHT22;4998;51.024;13.828;2023-03-08T12:50:45;9.80;90.10
9919;DHT22;4998;51.024;13.828;2023-03-08T12:53:27;9.80;90.10
9919;DHT22;4998;51.024;13.828;2023-03-08T12:56:05;9.80;90.10
9919;DHT22;4998;51.024;13.828;2023-03-08T12:58:36;9.80;90.30
9919;DHT22;4998;51.024;13.828;2023-03-08T13:01:07;9.80;90.30
9919;DHT22;4998;51.024;13.828;2023-03-08T13:03:48;9.80;90.30
9919;DHT22;4998;51.024;13.828;2023-03-08T13:06:47;9.80;90.20
9919;DHT22;4998;51.024;13.828;2023-03-08T13:09:21;9.80;90.40
9919;DHT22;4998;51.024;13.828;2023-03-08T13:11:54;9.90;90.40
9919;DHT22;4998;51.024;13.828;2023-03-08T13:14:26;9.90;90.40
9919;DHT22;4998;51.024;13.828;2023-03-08T13:16:54;9.90;90.40
9919;DHT22;4998;51.024;13.828;2023-03-08T13:19:25;9.90;90.30
9919;DHT22;4998;51.024;13.828;2023-03-08T13:21:59;9.90;90.20
9919;DHT22;4998;51.024;13.828;2023-03-08T13:24:39;10.00;89.30
9919;DHT22;4998;51.024;13.828;2023-03-08T13:27:30;10.00;89.30
9919;DHT22;4998;51.024;13.828;2023-03-08T13:30:21;10.00;89.30
9919;DHT22;4998;51.024;13.828;2023-03-08T13:32:49;10.10;88.80
9919;DHT22;4998;51.024;13.828;2023-03-08T13:35:17;10.10;88.80
9919;DHT22;4998;51.024;13.828;2023-03-08T13:37:51;10.10;88.80
9919;DHT22;4998;51.024;13.828;2023-03-08T13:40:20;10.10;88.80
9919;DHT22;4998;51.024;13.828;2023-03-08T13:42:54;10.10;88.90
9919;DHT22;4998;51.024;13.828;2023-03-08T13:45:24;10.20;88.90
9919;DHT22;4998;51.024;13.828;2023-03-08T13:47:52;10.20;88.80
9919;DHT22;4998;51.024;13.828;2023-03-08T13:50:24;10.20;89.00
9919;DHT22;4998;51.024;13.828;2023-03-08T13:52:53;10.20;88.90
9919;DHT22;4998;51.024;13.828;2023-03-08T13:55:26;10.30;88.90
9919;DHT22;4998;51.024;13.828;2023-03-08T13:57:55;10.30;88.50
9919;DHT22;4998;51.024;13.828;2023-03-08T14:00:27;10.30;88.40
9919;DHT22;4998;51.024;13.828;2023-03-08T14:02:54;10.30;87.80
9919;DHT22;4998;51.024;13.828;2023-03-08T14:05:23;10.40;87.50
9919;DHT22;4998;51.024;13.828;2023-03-08T14:07:59;10.30;87.10
9919;DHT22;4998;51.024;13.828;2023-03-08T14:10:31;10.40;87.30
9919;DHT22;4998;51.024;13.828;2023-03-08T14:13:01;10.40;87.10
9919;DHT22;4998;51.024;13.828;2023-03-08T14:15:30;10.30;86.90
9919;DHT22;4998;51.024;13.828;2023-03-08T14:17:58;10.30;86.70
9919;DHT22;4998;51.024;13.828;2023-03-08T14:20:27;10.30;87.00
9919;DHT22;4998;51.024;13.828;2023-03-08T14:22:54;10.30;87.20
9919;DHT22;4998;51.024;13.828;2023-03-08T14:25:25;10.30;86.80
9919;DHT22;4998;51.024;13.828;2023-03-08T14:27:52;10.30;86.70
9919;DHT22;4998;51.024;13.828;2023-03-08T14:30:21;10.20;86.50
9919;DHT22;4998;51.024;13.828;2023-03-08T14:33:00;10.30;86.70
9919;DHT22;4998;51.024;13.828;2023-03-08T14:35:29;10.20;86.40
9919;DHT22;4998;51.024;13.828;2023-03-08T14:37:57;10.20;86.20
9919;DHT22;4998;51.024;13.828;2023-03-08T14:40:28;10.20;86.20
9919;DHT22;4998;51.024;13.828;2023-03-08T14:42:57;10.20;86.10
9919;DHT22;4998;51.024;13.828;2023-03-08T14:45:27;10.10;86.20
9919;DHT22;4998;51.024;13.828;2023-03-08T14:47:58;10.10;86.20
9919;DHT22;4998;51.024;13.828;2023-03-08T14:50:27;10.10;86.40
9919;DHT22;4998;51.024;13.828;2023-03-08T14:52:56;10.00;85.90
9919;DHT22;4998;51.024;13.828;2023-03-08T14:55:26;10.00;86.10
9919;DHT22;4998;51.024;13.828;2023-03-08T14:57:55;10.00;86.10
9919;DHT22;4998;51.024;13.828;2023-03-08T15:00:24;9.90;87.20
9919;DHT22;4998;51.024;13.828;2023-03-08T15:02:52;9.80;86.90
9919;DHT22;4998;51.024;13.828;2023-03-08T15:05:21;9.80;86.90
9919;DHT22;4998;51.024;13.828;2023-03-08T15:07:49;9.80;87.30
9919;DHT22;4998;51.024;13.828;2023-03-08T15:10:23;9.70;87.40
9919;DHT22;4998;51.024;13.828;2023-03-08T15:12:50;9.70;87.40
9919;DHT22;4998;51.024;13.828;2023-03-08T15:15:18;9.60;87.40
9919;DHT22;4998;51.024;13.828;2023-03-08T15:17:45;9.60;87.40
9919;DHT22;4998;51.024;13.828;2023-03-08T15:20:13;9.50;87.60
9919;DHT22;4998;51.024;13.828;2023-03-08T15:22:46;9.50;87.60
9919;DHT22;4998;51.024;13.828;2023-03-08T15:25:17;9.50;87.90
9919;DHT22;4998;51.024;13.828;2023-03-08T15:27:45;9.40;87.80
9919;DHT22;4998;51.024;13.828;2023-03-08T15:30:15;9.40;88.00
9919;DHT22;4998;51.024;13.828;2023-03-08T15:32:42;9.40;88.10
9919;DHT22;4998;51.024;13.828;2023-03-08T15:35:09;9.30;88.10
9919;DHT22;4998;51.024;13.828;2023-03-08T15:37:36;9.30;88.00
9919;DHT22;4998;51.024;13.828;2023-03-08T15:40:08;9.30;88.20
9919;DHT22;4998;51.024;13.828;2023-03-08T15:42:36;9.30;88.50
9919;DHT22;4998;51.024;13.828;2023-03-08T15:45:04;9.20;88.40
9919;DHT22;4998;51.024;13.828;2023-03-08T15:47:31;9.20;88.50
9919;DHT22;4998;51.024;13.828;2023-03-08T15:49:58;9.20;88.50
9919;DHT22;4998;51.024;13.828;2023-03-08T15:52:26;9.20;88.60
9919;DHT22;4998;51.024;13.828;2023-03-08T15:54:53;9.10;88.50
9919;DHT22;4998;51.024;13.828;2023-03-08T15:57:22;9.10;88.70
9919;DHT22;4998;51.024;13.828;2023-03-08T15:59:49;9.10;88.70
9919;DHT22;4998;51.024;13.828;2023-03-08T16:02:18;9.10;89.30
9919;DHT22;4998;51.024;13.828;2023-03-08T16:04:45;9.10;89.50
9919;DHT22;4998;51.024;13.828;2023-03-08T16:07:15;9.10;90.00
9919;DHT22;4998;51.024;13.828;2023-03-08T16:09:42;9.10;90.10
9919;DHT22;4998;51.024;13.828;2023-03-08T16:12:10;9.10;90.00
9919;DHT22;4998;51.024;13.828;2023-03-08T16:14:38;9.10;89.80